Time;durP1;ratioP1;P1;durP2;ratioP2;P2;SDS_P1;SDS_P2;PMS_P1;PMS_P2;Temp;Humidity;BMP_temperature;BMP_pressure;BME280_temperature;BME280_humidity;BME280_pressure;Samples;Min_cycle;Max_cycle;Signal;HPM_P1;HPM_P2
2023/02/15 00:01:46;;;;;;;22.13;18.95;;;;;;;;;;10331332;28;20446;-67
2023/02/15 00:06:46;;;;;;;25.95;19.25;;;;;;;;;;10329963;28;20075;-66
2023/02/15 00:11:49;;;;;;;25.13;18.80;;;;;;;;;;10329819;28;20110;-67
2023/02/15 00:16:49;;;;;;;24.13;19.10;;;;;;;;;;10330903;28;20071;-66
2023/02/15 00:21:49;;;;;;;24.65;18.40;;;;;;;;;;10330169;28;20468;-66
2023/02/15 00:26:47;;;;;;;23.23;18.05;;;;;;;;;;10329777;28;20068;-66
2023/02/15 00:31:46;;;;;;;23.75;17.38;;;;;;;;;;10311245;28;20079;-66
2023/02/15 00:36:45;;;;;;;24.38;17.17;;;;;;;;;;10328493;28;20067;-66
2023/02/15 00:41:46;;;;;;;21.23;15.88;;;;;;;;;;10329050;28;20072;-66
2023/02/15 00:46:44;;;;;;;23.60;16.67;;;;;;;;;;10329503;28;20071;-66
2023/02/15 00:51:42;;;;;;;19.33;15.25;;;;;;;;;;10313232;28;20052;-66
2023/02/15 00:56:41;;;;;;;22.15;17.80;;;;;;;;;;10309742;28;20052;-67
2023/02/15 01:01:40;;;;;;;21.23;17.05;;;;;;;;;;10330669;28;20485;-66
2023/02/15 01:06:38;;;;;;;20.75;15.73;;;;;;;;;;10331918;28;20091;-66
2023/02/15 01:11:36;;;;;;;23.55;18.45;;;;;;;;;;10336866;28;20072;-67
2023/02/15 01:16:35;;;;;;;23.02;19.55;;;;;;;;;;10335839;28;20072;-66
2023/02/15 01:21:34;;;;;;;24.08;16.15;;;;;;;;;;10333910;28;20076;-67
2023/02/15 01:26:33;;;;;;;22.25;17.98;;;;;;;;;;10317606;28;20060;-66
2023/02/15 01:31:31;;;;;;;19.42;16.25;;;;;;;;;;10317563;28;20075;-66
2023/02/15 01:36:30;;;;;;;21.13;15.80;;;;;;;;;;10335745;28;20075;-66
2023/02/15 01:41:32;;;;;;;19.30;16.52;;;;;;;;;;10335689;28;20105;-66
2023/02/15 01:46:34;;;;;;;24.17;17.13;;;;;;;;;;10320228;28;20101;-66
2023/02/15 01:51:34;;;;;;;20.90;16.80;;;;;;;;;;10334618;28;20078;-66
2023/02/15 01:56:35;;;;;;;22.38;17.33;;;;;;;;;;10321508;28;20267;-66
2023/02/15 02:01:33;;;;;;;25.95;18.63;;;;;;;;;;10316615;28;20098;-66
2023/02/15 02:06:33;;;;;;;24.92;19.17;;;;;;;;;;10331309;28;20095;-66
2023/02/15 02:11:31;;;;;;;20.95;17.02;;;;;;;;;;10315950;28;20040;-66
2023/02/15 02:16:37;;;;;;;20.38;15.63;;;;;;;;;;10316024;28;20041;-66
2023/02/15 02:22:06;;;;;;;25.58;17.30;;;;;;;;;;10315994;28;20095;-66
2023/02/15 02:27:22;;;;;;;24.30;19.33;;;;;;;;;;10332984;28;20071;-66
2023/02/15 02:32:54;;;;;;;21.85;17.63;;;;;;;;;;10335673;28;20078;-66
2023/02/15 02:37:58;;;;;;;20.88;17.90;;;;;;;;;;10331392;28;20091;-66
2023/02/15 02:43:00;;;;;;;21.63;17.88;;;;;;;;;;10336161;28;20070;-66
2023/02/15 02:48:00;;;;;;;22.35;17.48;;;;;;;;;;10317534;28;20083;-66
2023/02/15 02:53:01;;;;;;;22.08;18.75;;;;;;;;;;10332479;28;20072;-66
2023/02/15 02:58:01;;;;;;;20.83;17.85;;;;;;;;;;10331665;28;20064;-66
2023/02/15 03:03:04;;;;;;;23.42;19.65;;;;;;;;;;10321205;28;20472;-66
2023/02/15 03:08:05;;;;;;;24.00;19.50;;;;;;;;;;10333701;28;20080;-66
2023/02/15 03:13:12;;;;;;;41.78;25.70;;;;;;;;;;10334125;28;20555;-67
2023/02/15 03:18:26;;;;;;;36.75;27.90;;;;;;;;;;10313671;28;20115;-67
2023/02/15 03:23:28;;;;;;;23.98;19.50;;;;;;;;;;10309522;28;20079;-68
2023/02/15 03:28:31;;;;;;;26.15;20.25;;;;;;;;;;10313507;28;20084;-67
2023/02/15 03:33:30;;;;;;;21.75;18.95;;;;;;;;;;10332741;28;20052;-67
2023/02/15 03:38:33;;;;;;;24.40;19.05;;;;;;;;;;10329476;28;20067;-68
2023/02/15 03:43:33;;;;;;;37.67;27.92;;;;;;;;;;10330476;28;20079;-67
2023/02/15 03:48:34;;;;;;;25.88;20.50;;;;;;;;;;10329930;28;20074;-67
2023/02/15 03:53:34;;;;;;;25.10;20.77;;;;;;;;;;10325580;28;20048;-67
2023/02/15 04:03:47;;;;;;;;;;;;;;;;;;10332871;28;20079;-67
2023/02/15 04:16:02;;;;;;;29.10;22.25;;;;;;;;;;10332387;28;20516;-67
2023/02/15 04:29:53;;;;;;;25.33;20.27;;;;;;;;;;10331695;28;20068;-67
2023/02/15 04:34:51;;;;;;;26.20;20.10;;;;;;;;;;10333127;28;20067;-67
2023/02/15 04:39:51;;;;;;;30.63;23.15;;;;;;;;;;10338020;28;20114;-67
2023/02/15 04:44:49;;;;;;;30.23;23.67;;;;;;;;;;10337709;28;20082;-67
2023/02/15 04:49:47;;;;;;;30.48;23.63;;;;;;;;;;10336881;28;20469;-66
2023/02/15 04:54:46;;;;;;;27.55;22.45;;;;;;;;;;10338341;28;20072;-66
2023/02/15 04:59:45;;;;;;;31.00;22.15;;;;;;;;;;10335959;28;20079;-66
2023/02/15 05:04:43;;;;;;;31.42;23.50;;;;;;;;;;10337171;28;20083;-66
2023/02/15 05:09:42;;;;;;;26.83;20.83;;;;;;;;;;10332390;28;20098;-67
2023/02/15 05:14:40;;;;;;;27.48;22.77;;;;;;;;;;10332080;28;20071;-66
2023/02/15 05:19:39;;;;;;;27.20;22.70;;;;;;;;;;10336969;28;20080;-67
2023/02/15 05:29:53;;;;;;;27.65;22.75;;;;;;;;;;10340553;28;20457;-66
2023/02/15 05:34:53;;;;;;;28.92;21.70;;;;;;;;;;10337953;28;20064;-66
2023/02/15 05:39:51;;;;;;;24.88;20.80;;;;;;;;;;10333086;28;20076;-67
2023/02/15 05:44:49;;;;;;;28.13;21.23;;;;;;;;;;10337205;28;20072;-67
2023/02/15 05:49:47;;;;;;;72.40;45.00;;;;;;;;;;10335954;28;20079;-66
2023/02/15 05:54:48;;;;;;;27.83;22.08;;;;;;;;;;10330655;28;20584;-66
2023/02/15 05:59:46;;;;;;;27.75;22.60;;;;;;;;;;10322816;28;20068;-66
2023/02/15 06:04:44;;;;;;;30.38;22.38;;;;;;;;;;10334990;28;20488;-65
2023/02/15 06:09:42;;;;;;;29.35;23.30;;;;;;;;;;10341709;28;20075;-67
2023/02/15 06:14:42;;;;;;;31.98;24.02;;;;;;;;;;10338521;28;20138;-66
2023/02/15 06:19:40;;;;;;;30.00;23.67;;;;;;;;;;10335864;28;20094;-64
2023/02/15 06:24:38;;;;;;;30.95;26.27;;;;;;;;;;10334300;28;20071;-65
2023/02/15 06:29:37;;;;;;;35.13;23.33;;;;;;;;;;10333706;28;20086;-65
2023/02/15 06:34:36;;;;;;;30.02;22.55;;;;;;;;;;10332606;28;20063;-67
2023/02/15 06:39:35;;;;;;;37.55;26.30;;;;;;;;;;10349635;28;20485;-66
2023/02/15 06:44:33;;;;;;;39.53;29.33;;;;;;;;;;10336958;28;20552;-67
2023/02/15 06:49:31;;;;;;;36.30;25.88;;;;;;;;;;10337031;28;20072;-66
2023/02/15 06:54:31;;;;;;;30.35;23.92;;;;;;;;;;10334182;28;20064;-67
2023/02/15 06:59:29;;;;;;;32.45;25.15;;;;;;;;;;10331650;28;20076;-66
2023/02/15 07:04:29;;;;;;;30.58;22.92;;;;;;;;;;10334346;28;20073;-67
2023/02/15 07:09:28;;;;;;;29.05;22.13;;;;;;;;;;10335346;28;20098;-67
2023/02/15 07:14:27;;;;;;;48.42;34.20;;;;;;;;;;10339029;28;20076;-67
2023/02/15 07:19:26;;;;;;;50.22;34.13;;;;;;;;;;10341914;28;20087;-67
2023/02/15 07:24:24;;;;;;;55.50;35.90;;;;;;;;;;10344281;28;20076;-67
2023/02/15 07:29:22;;;;;;;39.88;29.63;;;;;;;;;;10335465;28;20513;-67
2023/02/15 07:34:22;;;;;;;30.08;23.65;;;;;;;;;;10328886;28;20091;-66
2023/02/15 07:39:20;;;;;;;30.98;25.05;;;;;;;;;;10329962;28;20074;-67
2023/02/15 07:44:19;;;;;;;33.75;25.00;;;;;;;;;;10334525;28;20063;-66
2023/02/15 07:49:17;;;;;;;31.17;25.27;;;;;;;;;;10323262;28;20084;-66
2023/02/15 07:54:16;;;;;;;34.33;26.02;;;;;;;;;;10325535;28;20103;-67
2023/02/15 07:59:15;;;;;;;35.13;26.40;;;;;;;;;;10330470;28;20076;-67
2023/02/15 08:04:13;;;;;;;39.03;29.92;;;;;;;;;;10328181;28;20159;-67
2023/02/15 08:09:11;;;;;;;48.35;31.95;;;;;;;;;;10327614;28;20079;-67
2023/02/15 08:14:11;;;;;;;40.22;30.75;;;;;;;;;;10331151;28;20068;-67
2023/02/15 08:19:10;;;;;;;35.97;26.55;;;;;;;;;;10327299;28;20067;-67
2023/02/15 08:24:09;;;;;;;36.42;25.65;;;;;;;;;;10308447;28;20533;-67
2023/02/15 08:29:08;;;;;;;36.13;28.38;;;;;;;;;;10328099;28;20075;-67
2023/02/15 08:34:08;;;;;;;45.90;33.10;;;;;;;;;;10324844;28;20098;-67
2023/02/15 08:39:07;;;;;;;31.85;25.02;;;;;;;;;;10325451;28;20063;-67
2023/02/15 08:44:06;;;;;;;33.92;26.75;;;;;;;;;;10329290;28;20095;-67
2023/02/15 08:49:04;;;;;;;31.33;24.90;;;;;;;;;;10328295;28;20470;-66
2023/02/15 08:54:06;;;;;;;33.22;26.83;;;;;;;;;;10328196;28;20543;-67
2023/02/15 08:59:04;;;;;;;33.22;24.75;;;;;;;;;;10327960;28;20460;-67
2023/02/15 09:04:08;;;;;;;36.72;24.50;;;;;;;;;;10327964;28;20080;-67
2023/02/15 09:09:08;;;;;;;28.30;22.88;;;;;;;;;;10326264;28;20064;-68
2023/02/15 09:14:07;;;;;;;30.00;22.67;;;;;;;;;;10332714;28;20063;-67
2023/02/15 09:19:06;;;;;;;29.30;22.30;;;;;;;;;;10329879;28;20076;-65
2023/02/15 09:24:05;;;;;;;29.65;24.25;;;;;;;;;;10333291;28;20063;-65
2023/02/15 09:29:05;;;;;;;33.03;26.73;;;;;;;;;;10328055;28;20063;-67
2023/02/15 09:34:03;;;;;;;31.88;24.63;;;;;;;;;;10329737;28;20066;-67
2023/02/15 09:39:05;;;;;;;26.52;21.50;;;;;;;;;;10335005;28;20060;-67
2023/02/15 09:44:11;;;;;;;27.50;22.38;;;;;;;;;;10323971;28;20067;-67
2023/02/15 09:49:11;;;;;;;28.75;21.63;;;;;;;;;;10317744;28;20076;-67
2023/02/15 09:54:24;;;;;;;33.83;25.17;;;;;;;;;;10319467;28;20072;-68
2023/02/15 09:59:29;;;;;;;29.20;26.00;;;;;;;;;;10329150;28;20063;-68
2023/02/15 10:04:36;;;;;;;28.23;23.52;;;;;;;;;;10332395;28;20087;-68
2023/02/15 10:09:40;;;;;;;27.95;20.45;;;;;;;;;;10334617;28;20063;-68
2023/02/15 10:14:51;;;;;;;25.13;19.65;;;;;;;;;;10332046;28;20082;-68
2023/02/15 10:19:57;;;;;;;34.92;25.65;;;;;;;;;;10328701;28;20072;-68
2023/02/15 10:25:03;;;;;;;26.30;20.60;;;;;;;;;;10310284;28;20083;-68
2023/02/15 10:30:09;;;;;;;24.60;21.08;;;;;;;;;;10335614;28;20506;-68
2023/02/15 10:35:11;;;;;;;33.55;25.55;;;;;;;;;;10333605;28;20096;-68
2023/02/15 10:40:15;;;;;;;28.55;24.10;;;;;;;;;;10332146;28;20064;-68
2023/02/15 10:45:20;;;;;;;24.85;20.88;;;;;;;;;;10332196;28;20086;-68
2023/02/15 10:50:26;;;;;;;24.88;21.77;;;;;;;;;;10332234;28;20139;-67
2023/02/15 10:55:29;;;;;;;24.00;18.70;;;;;;;;;;10312064;28;20084;-67
2023/02/15 11:00:32;;;;;;;27.77;24.27;;;;;;;;;;10331360;28;20075;-67
2023/02/15 11:05:36;;;;;;;26.08;22.70;;;;;;;;;;10329501;28;20079;-69
2023/02/15 11:10:36;;;;;;;28.10;19.73;;;;;;;;;;10332079;28;20060;-68
2023/02/15 11:15:37;;;;;;;29.90;18.88;;;;;;;;;;10331168;28;20078;-68
2023/02/15 11:20:37;;;;;;;22.67;18.83;;;;;;;;;;10330035;28;20486;-68
2023/02/15 11:25:36;;;;;;;24.92;19.23;;;;;;;;;;10329510;28;20083;-68
2023/02/15 11:30:43;;;;;;;28.70;21.50;;;;;;;;;;10333037;28;20064;-68
2023/02/15 11:35:43;;;;;;;24.83;19.10;;;;;;;;;;10328707;28;20071;-67
2023/02/15 11:40:44;;;;;;;29.85;20.00;;;;;;;;;;10329157;28;20082;-67
2023/02/15 11:45:45;;;;;;;23.05;19.38;;;;;;;;;;10331903;28;20065;-67
2023/02/15 11:50:44;;;;;;;53.10;30.83;;;;;;;;;;10325381;28;20083;-68
2023/02/15 11:55:43;;;;;;;31.52;23.13;;;;;;;;;;10328894;28;20095;-67
2023/02/15 12:00:43;;;;;;;28.45;22.95;;;;;;;;;;10328736;28;20488;-68
2023/02/15 12:05:45;;;;;;;24.48;19.27;;;;;;;;;;10331685;28;20103;-68
2023/02/15 12:10:47;;;;;;;20.60;16.73;;;;;;;;;;10325477;28;20079;-67
2023/02/15 12:15:48;;;;;;;22.48;16.85;;;;;;;;;;10330370;28;20098;-68
2023/02/15 12:20:50;;;;;;;20.00;16.88;;;;;;;;;;10328045;28;20082;-68
2023/02/15 12:25:52;;;;;;;21.05;16.27;;;;;;;;;;10328126;28;20106;-68
2023/02/15 12:30:50;;;;;;;26.55;19.67;;;;;;;;;;10332029;28;20082;-68
2023/02/15 12:35:55;;;;;;;25.52;18.27;;;;;;;;;;10330500;28;20556;-68
2023/02/15 12:41:01;;;;;;;20.67;16.85;;;;;;;;;;10329805;28;20457;-68
2023/02/15 12:46:19;;;;;;;21.63;16.67;;;;;;;;;;10328369;28;20533;-68
2023/02/15 12:51:19;;;;;;;19.60;14.73;;;;;;;;;;10324116;28;20074;-68
2023/02/15 12:56:27;;;;;;;19.35;15.20;;;;;;;;;;10332868;28;20095;-68
2023/02/15 13:01:26;;;;;;;37.22;25.13;;;;;;;;;;10335637;28;20083;-68
2023/02/15 13:06:26;;;;;;;38.55;25.95;;;;;;;;;;10337872;28;20524;-68
2023/02/15 13:11:26;;;;;;;17.00;13.80;;;;;;;;;;10336989;28;20510;-68
2023/02/15 13:16:31;;;;;;;21.50;18.20;;;;;;;;;;10337144;28;20067;-67
2023/02/15 13:21:32;;;;;;;21.83;17.17;;;;;;;;;;10333843;28;20078;-68
2023/02/15 13:26:32;;;;;;;25.70;19.40;;;;;;;;;;10336696;28;20083;-68
2023/02/15 13:31:32;;;;;;;20.52;15.30;;;;;;;;;;10336441;28;20728;-68
2023/02/15 13:36:41;;;;;;;19.40;14.30;;;;;;;;;;10335109;28;20473;-68
2023/02/15 13:41:48;;;;;;;23.20;17.60;;;;;;;;;;10318893;28;20576;-68
2023/02/15 13:46:56;;;;;;;23.42;16.30;;;;;;;;;;10336690;28;20082;-67
2023/02/15 13:52:00;;;;;;;28.05;20.80;;;;;;;;;;10334239;28;20072;-67
2023/02/15 13:57:03;;;;;;;24.23;19.88;;;;;;;;;;10332542;28;20067;-68
2023/02/15 14:02:12;;;;;;;24.52;17.23;;;;;;;;;;10334417;28;22467;-67
2023/02/15 14:07:22;;;;;;;29.10;22.00;;;;;;;;;;10332981;28;20135;-67
2023/02/15 14:12:32;;;;;;;21.00;17.25;;;;;;;;;;10335538;28;20079;-67
2023/02/15 14:17:38;;;;;;;34.70;26.98;;;;;;;;;;10337412;28;20066;-67
2023/02/15 14:22:40;;;;;;;33.90;25.55;;;;;;;;;;10333703;28;20106;-68
2023/02/15 14:27:43;;;;;;;33.33;22.33;;;;;;;;;;10334222;28;20359;-68
2023/02/15 14:32:43;;;;;;;26.23;18.63;;;;;;;;;;10332450;28;20091;-68
2023/02/15 14:37:46;;;;;;;25.48;18.15;;;;;;;;;;10334139;28;20067;-68
2023/02/15 14:42:50;;;;;;;33.88;24.88;;;;;;;;;;10333620;28;20076;-68
2023/02/15 14:47:51;;;;;;;31.70;23.77;;;;;;;;;;10333289;28;20532;-68
2023/02/15 14:53:04;;;;;;;25.50;21.08;;;;;;;;;;10318396;28;20055;-68
2023/02/15 14:58:11;;;;;;;43.88;29.88;;;;;;;;;;10328035;28;20064;-68
2023/02/15 15:03:19;;;;;;;29.85;21.42;;;;;;;;;;10333087;28;20465;-68
2023/02/15 15:08:23;;;;;;;37.67;27.17;;;;;;;;;;10333446;28;20071;-68
2023/02/15 15:13:45;;;;;;;33.47;21.80;;;;;;;;;;10331038;28;20075;-68
2023/02/15 15:18:45;;;;;;;30.27;22.38;;;;;;;;;;10317059;28;20523;-68
2023/02/15 15:23:44;;;;;;;61.90;37.33;;;;;;;;;;10328255;28;20509;-68
2023/02/15 15:28:55;;;;;;;93.22;58.17;;;;;;;;;;10330749;28;20519;-68
2023/02/15 15:34:07;;;;;;;48.30;33.03;;;;;;;;;;10313554;28;20503;-68
2023/02/15 15:39:13;;;;;;;139.32;95.45;;;;;;;;;;10328673;28;20067;-68
2023/02/15 15:44:33;;;;;;;134.32;96.63;;;;;;;;;;10333508;28;20068;-68
2023/02/15 15:49:33;;;;;;;69.05;53.67;;;;;;;;;;10305380;28;20095;-68
2023/02/15 15:54:32;;;;;;;64.95;45.22;;;;;;;;;;10334446;28;20071;-68
2023/02/15 15:59:31;;;;;;;82.57;56.05;;;;;;;;;;10331529;28;20481;-68
2023/02/15 16:04:30;;;;;;;66.00;49.72;;;;;;;;;;10325531;28;20072;-68
2023/02/15 16:09:30;;;;;;;202.18;137.20;;;;;;;;;;10325496;28;20458;-68
2023/02/15 16:14:31;;;;;;;217.30;140.70;;;;;;;;;;10326541;28;20560;-69
2023/02/15 16:19:31;;;;;;;100.03;69.07;;;;;;;;;;10327468;28;20068;-69
2023/02/15 16:24:43;;;;;;;72.15;43.97;;;;;;;;;;10330819;28;20464;-69
2023/02/15 16:29:41;;;;;;;143.82;77.28;;;;;;;;;;10312487;28;20072;-68
2023/02/15 16:34:39;;;;;;;588.30;233.60;;;;;;;;;;10338245;28;20075;-68
2023/02/15 16:39:41;;;;;;;266.58;117.47;;;;;;;;;;10338344;28;20090;-68
2023/02/15 16:44:40;;;;;;;262.08;128.40;;;;;;;;;;10337760;28;20086;-68
2023/02/15 16:49:39;;;;;;;184.50;105.32;;;;;;;;;;10347742;28;20493;-68
2023/02/15 16:54:38;;;;;;;180.27;96.53;;;;;;;;;;10338338;28;20067;-68
2023/02/15 16:59:42;;;;;;;298.83;159.88;;;;;;;;;;10335765;28;20548;-68
2023/02/15 17:04:42;;;;;;;251.50;140.57;;;;;;;;;;10336944;28;20083;-68
2023/02/15 17:09:49;;;;;;;123.30;76.28;;;;;;;;;;10338640;28;20060;-68
2023/02/15 17:14:55;;;;;;;95.43;63.45;;;;;;;;;;10340578;28;20078;-68
2023/02/15 17:19:54;;;;;;;40.55;30.40;;;;;;;;;;10339264;28;20099;-68
2023/02/15 17:24:58;;;;;;;106.30;66.85;;;;;;;;;;10336723;28;20072;-68
2023/02/15 17:30:01;;;;;;;113.95;76.10;;;;;;;;;;10336391;28;20534;-67
2023/02/15 17:35:17;;;;;;;84.18;58.78;;;;;;;;;;10335130;28;20493;-68
2023/02/15 17:40:23;;;;;;;63.33;42.30;;;;;;;;;;10337163;28;20060;-68
2023/02/15 17:45:25;;;;;;;106.47;69.45;;;;;;;;;;10334880;28;20080;-67
2023/02/15 17:50:26;;;;;;;162.68;106.13;;;;;;;;;;10314510;28;20076;-69
2023/02/15 17:55:41;;;;;;;260.45;150.68;;;;;;;;;;10334027;28;20552;-68
2023/02/15 18:11:48;;;;;;;63.08;52.95;;;;;;;;;;10333886;28;20072;-69
2023/02/15 18:16:48;;;;;;;64.75;49.75;;;;;;;;;;10324029;28;20045;-69
2023/02/15 18:21:47;;;;;;;61.60;46.47;;;;;;;;;;10348398;28;20067;-68
2023/02/15 18:26:45;;;;;;;50.30;38.60;;;;;;;;;;10351193;28;20079;-67
2023/02/15 18:31:44;;;;;;;119.93;89.75;;;;;;;;;;10334480;28;20517;-67
2023/02/15 18:36:45;;;;;;;49.60;38.35;;;;;;;;;;10342581;28;20056;-67
2023/02/15 18:41:45;;;;;;;41.67;33.65;;;;;;;;;;10333328;28;20461;-69
2023/02/15 18:46:46;;;;;;;71.30;46.08;;;;;;;;;;10334344;28;20075;-68
2023/02/15 18:51:46;;;;;;;95.47;54.05;;;;;;;;;;10337705;28;20076;-69
2023/02/15 18:56:44;;;;;;;175.45;82.18;;;;;;;;;;10334003;28;20068;-67
2023/02/15 19:01:42;;;;;;;37.70;27.63;;;;;;;;;;10343144;28;21477;-68
2023/02/15 19:06:44;;;;;;;31.73;27.40;;;;;;;;;;10338066;28;20474;-67
2023/02/15 19:11:44;;;;;;;130.10;85.15;;;;;;;;;;10332582;28;20075;-68
2023/02/15 19:16:42;;;;;;;137.38;77.47;;;;;;;;;;10323699;28;20083;-69
2023/02/15 19:21:40;;;;;;;59.15;44.75;;;;;;;;;;10331605;28;20072;-69
2023/02/15 19:26:40;;;;;;;56.75;39.75;;;;;;;;;;10331020;28;20075;-68
2023/02/15 19:31:44;;;;;;;68.10;42.77;;;;;;;;;;10331004;28;20063;-68
2023/02/15 19:36:43;;;;;;;137.43;78.53;;;;;;;;;;10321533;28;20076;-68
2023/02/15 19:41:41;;;;;;;42.80;26.75;;;;;;;;;;10322575;28;20068;-67
2023/02/15 19:46:41;;;;;;;36.67;23.45;;;;;;;;;;10326123;28;20094;-68
2023/02/15 19:51:41;;;;;;;119.50;67.53;;;;;;;;;;10327095;28;20426;-68
2023/02/15 19:56:39;;;;;;;115.85;63.53;;;;;;;;;;10330891;28;20082;-67
2023/02/15 20:01:39;;;;;;;220.27;94.22;;;;;;;;;;10335598;28;20067;-68
2023/02/15 20:06:37;;;;;;;38.15;22.73;;;;;;;;;;10325901;28;20079;-68
2023/02/15 20:11:37;;;;;;;46.65;28.98;;;;;;;;;;10331876;28;20481;-69
2023/02/15 20:16:35;;;;;;;57.67;38.67;;;;;;;;;;10333552;28;20072;-68
2023/02/15 20:21:34;;;;;;;81.70;48.58;;;;;;;;;;10329732;28;20196;-68
2023/02/15 20:26:33;;;;;;;28.13;19.83;;;;;;;;;;10328427;28;20269;-68
2023/02/15 20:31:33;;;;;;;38.38;27.52;;;;;;;;;;10330980;28;20072;-67
2023/02/15 20:36:31;;;;;;;44.03;30.00;;;;;;;;;;10326205;28;20068;-67
2023/02/15 20:41:36;;;;;;;92.85;52.08;;;;;;;;;;10329242;28;20529;-67
2023/02/15 20:46:35;;;;;;;64.88;44.42;;;;;;;;;;10330695;28;20076;-67
2023/02/15 20:51:34;;;;;;;25.92;20.50;;;;;;;;;;10325624;28;20105;-67
2023/02/15 20:56:32;;;;;;;26.33;21.13;;;;;;;;;;10333395;28;20493;-68
2023/02/15 21:01:31;;;;;;;53.65;35.63;;;;;;;;;;10320115;28;20068;-68
2023/02/15 21:06:33;;;;;;;19.50;15.45;;;;;;;;;;10333568;28;20485;-68
2023/02/15 21:11:31;;;;;;;16.15;13.18;;;;;;;;;;10328032;28;20072;-67
2023/02/15 21:16:29;;;;;;;16.58;13.38;;;;;;;;;;10329827;28;20060;-67
2023/02/15 21:21:27;;;;;;;18.05;14.90;;;;;;;;;;10336082;28;20527;-67
2023/02/15 21:26:27;;;;;;;21.67;15.80;;;;;;;;;;10334398;28;20079;-67
2023/02/15 21:31:27;;;;;;;41.42;32.25;;;;;;;;;;10337623;28;20075;-68
2023/02/15 21:36:26;;;;;;;73.00;49.08;;;;;;;;;;10334412;28;20072;-68
2023/02/15 21:52:11;;;;;;;30.30;21.15;;;;;;;;;;10333662;28;20142;-67
2023/02/15 21:57:12;;;;;;;30.20;21.67;;;;;;;;;;10337141;28;20072;-68
2023/02/15 22:02:27;;;;;;;27.25;20.10;;;;;;;;;;10334493;28;20082;-67
2023/02/15 22:07:25;;;;;;;38.10;24.90;;;;;;;;;;10331092;28;20089;-67
2023/02/15 22:12:23;;;;;;;34.50;22.10;;;;;;;;;;10334277;28;20095;-67
2023/02/15 22:17:24;;;;;;;60.10;36.28;;;;;;;;;;10333571;28;20068;-67
2023/02/15 22:22:23;;;;;;;56.10;34.33;;;;;;;;;;10316615;28;20075;-67
2023/02/15 22:27:22;;;;;;;63.58;35.17;;;;;;;;;;10332382;28;20501;-67
2023/02/15 22:32:21;;;;;;;127.82;77.72;;;;;;;;;;10333146;28;20075;-67
2023/02/15 22:37:21;;;;;;;91.28;53.83;;;;;;;;;;10333212;28;20071;-67
2023/02/15 22:42:23;;;;;;;60.95;39.38;;;;;;;;;;10332558;28;20138;-67
2023/02/15 22:47:22;;;;;;;32.83;20.52;;;;;;;;;;10333657;28;20075;-67
2023/02/15 22:52:22;;;;;;;42.70;26.05;;;;;;;;;;10332994;28;20072;-67
2023/02/15 22:57:25;;;;;;;26.33;21.20;;;;;;;;;;10332385;28;20075;-67
2023/02/15 23:02:23;;;;;;;26.70;19.75;;;;;;;;;;10331679;28;20090;-68
2023/02/15 23:07:23;;;;;;;29.83;22.52;;;;;;;;;;10334066;28;20072;-67
2023/02/15 23:12:25;;;;;;;34.22;24.35;;;;;;;;;;10333512;28;20071;-68
2023/02/15 23:17:23;;;;;;;26.40;19.45;;;;;;;;;;10334384;28;20087;-67
2023/02/15 23:22:22;;;;;;;31.13;19.85;;;;;;;;;;10312853;28;20480;-67
2023/02/15 23:32:36;;;;;;;22.80;18.38;;;;;;;;;;10334010;28;20068;-67
2023/02/15 23:37:35;;;;;;;27.55;18.65;;;;;;;;;;10332143;28;20071;-67
2023/02/15 23:42:35;;;;;;;22.75;16.52;;;;;;;;;;10330779;28;20114;-67
2023/02/15 23:53:05;;;;;;;29.23;21.55;;;;;;;;;;10205713;28;20081;-66
2023/02/15 23:58:03;;;;;;;28.25;19.77;;;;;;;;;;10297031;28;20952;-66
